Time;durP1;ratioP1;P1;durP2;ratioP2;P2;SDS_P1;SDS_P2;PMS_P1;PMS_P2;Temp;Humidity;BMP_temperature;BMP_pressure;BME280_temperature;BME280_humidity;BME280_pressure;Samples;Min_cycle;Max_cycle;Signal;HPM_P1;HPM_P2
2022/08/17 00:01:41;;;;;;;;;;;23.90;81.30;;;;;;4963287;28;19969;-63
2022/08/17 00:04:07;;;;;;;;;;;24.00;81.40;;;;;;4969792;28;20013;-64
2022/08/17 00:06:34;;;;;;;;;;;23.90;81.30;;;;;;4970056;28;19921;-64
2022/08/17 00:09:01;;;;;;;;;;;24.00;81.10;;;;;;4961881;28;20417;-64
2022/08/17 00:11:28;;;;;;;;;;;24.10;80.40;;;;;;4964228;28;20305;-64
2022/08/17 00:13:56;;;;;;;;;;;24.20;79.30;;;;;;4963632;28;19951;-64
2022/08/17 00:16:32;;;;;;;;;;;24.20;78.80;;;;;;4970633;28;20321;-67
2022/08/17 00:18:58;;;;;;;;;;;24.30;78.70;;;;;;4969904;28;19914;-63
2022/08/17 00:21:24;;;;;;;;;;;24.20;79.00;;;;;;4962722;28;19910;-64
2022/08/17 00:23:50;;;;;;;;;;;24.20;79.30;;;;;;4965546;28;19911;-63
2022/08/17 00:26:16;;;;;;;;;;;24.20;79.10;;;;;;4970371;28;19922;-65
2022/08/17 00:28:42;;;;;;;;;;;24.20;79.70;;;;;;4956800;28;19914;-64
2022/08/17 00:31:08;;;;;;;;;;;24.20;78.60;;;;;;4962548;28;19921;-64
2022/08/17 00:33:34;;;;;;;;;;;24.30;78.10;;;;;;4969139;28;20330;-64
2022/08/17 00:36:00;;;;;;;;;;;24.40;77.90;;;;;;4952509;28;19910;-65
2022/08/17 00:38:26;;;;;;;;;;;24.40;78.10;;;;;;4962473;28;19910;-64
2022/08/17 00:40:54;;;;;;;;;;;24.20;78.70;;;;;;4964609;28;19921;-63
2022/08/17 00:43:26;;;;;;;;;;;24.10;79.20;;;;;;4970287;28;19918;-63
2022/08/17 00:45:51;;;;;;;;;;;24.00;79.80;;;;;;4966901;28;20017;-65
2022/08/17 00:48:17;;;;;;;;;;;23.90;80.40;;;;;;4962150;28;19993;-65
2022/08/17 00:50:55;;;;;;;;;;;23.80;80.70;;;;;;4967528;28;19965;-63
2022/08/17 00:53:21;;;;;;;;;;;23.80;81.00;;;;;;4969907;28;19946;-64
2022/08/17 00:55:47;;;;;;;;;;;23.70;81.70;;;;;;4964404;28;19910;-70
2022/08/17 00:58:12;;;;;;;;;;;23.60;81.60;;;;;;4944723;28;19915;-64
2022/08/17 01:00:40;;;;;;;;;;;23.60;81.60;;;;;;4954201;28;20420;-64
2022/08/17 01:03:09;;;;;;;;;;;23.70;81.70;;;;;;4973708;28;19922;-64
2022/08/17 01:05:37;;;;;;;;;;;23.80;81.50;;;;;;4974841;28;20357;-63
2022/08/17 01:08:03;;;;;;;;;;;23.90;80.10;;;;;;4961899;28;19915;-64
2022/08/17 01:10:37;;;;;;;;;;;24.00;79.30;;;;;;4962823;28;19911;-64
2022/08/17 01:13:04;;;;;;;;;;;24.10;79.00;;;;;;4962438;28;19918;-64
2022/08/17 01:15:30;;;;;;;;;;;24.10;79.10;;;;;;4963250;28;19949;-64
2022/08/17 01:17:56;;;;;;;;;;;24.00;79.80;;;;;;4969400;28;19915;-66
2022/08/17 01:20:22;;;;;;;;;;;23.90;80.40;;;;;;4966129;28;19910;-64
2022/08/17 01:22:48;;;;;;;;;;;23.80;80.70;;;;;;4961619;28;19917;-64
2022/08/17 01:25:14;;;;;;;;;;;23.70;82.00;;;;;;4966646;28;19922;-65
2022/08/17 01:27:39;;;;;;;;;;;23.60;82.10;;;;;;4969388;28;19914;-65
2022/08/17 01:30:07;;;;;;;;;;;23.50;82.90;;;;;;4953966;28;20325;-64
2022/08/17 01:32:32;;;;;;;;;;;23.60;83.20;;;;;;4962569;28;20374;-64
2022/08/17 01:34:59;;;;;;;;;;;23.60;82.80;;;;;;4968903;28;19984;-64
2022/08/17 01:37:30;;;;;;;;;;;23.60;82.50;;;;;;4966349;28;19917;-64
2022/08/17 01:40:00;;;;;;;;;;;23.50;82.70;;;;;;4961256;28;19910;-64
2022/08/17 01:42:38;;;;;;;;;;;23.40;83.20;;;;;;4964691;28;19914;-65
2022/08/17 01:45:06;;;;;;;;;;;23.30;83.70;;;;;;4969035;28;19926;-63
2022/08/17 01:47:32;;;;;;;;;;;23.30;83.90;;;;;;4965357;28;19961;-64
2022/08/17 01:50:03;;;;;;;;;;;23.20;83.90;;;;;;4961097;28;20008;-64
2022/08/17 01:52:29;;;;;;;;;;;23.20;83.80;;;;;;4965880;28;19911;-64
2022/08/17 01:54:55;;;;;;;;;;;23.30;83.30;;;;;;4968750;28;20428;-64
2022/08/17 01:57:20;;;;;;;;;;;23.40;82.60;;;;;;4945017;28;19918;-64
2022/08/17 01:59:46;;;;;;;;;;;23.40;82.90;;;;;;4956259;28;19921;-65
2022/08/17 02:02:12;;;;;;;;;;;23.40;83.30;;;;;;4968611;28;19918;-65
2022/08/17 02:04:37;;;;;;;;;;;23.30;83.20;;;;;;4965790;28;20417;-67
2022/08/17 02:07:03;;;;;;;;;;;23.30;83.20;;;;;;4960738;28;19964;-65
2022/08/17 02:09:29;;;;;;;;;;;23.30;83.10;;;;;;4965465;28;19910;-64
2022/08/17 02:11:55;;;;;;;;;;;23.30;83.50;;;;;;4965695;28;19921;-66
2022/08/17 02:14:21;;;;;;;;;;;23.20;83.60;;;;;;4943041;28;19914;-64
2022/08/17 02:16:47;;;;;;;;;;;23.20;83.80;;;;;;4965235;28;19914;-65
2022/08/17 02:19:14;;;;;;;;;;;23.30;83.30;;;;;;4968320;28;19927;-67
2022/08/17 02:21:41;;;;;;;;;;;23.30;83.40;;;;;;4961970;28;20053;-67
2022/08/17 02:24:09;;;;;;;;;;;23.30;83.30;;;;;;4961133;28;19923;-64
2022/08/17 02:26:35;;;;;;;;;;;23.40;82.30;;;;;;4943074;28;19910;-68
2022/08/17 02:29:00;;;;;;;;;;;23.50;81.80;;;;;;4954830;28;20289;-65
2022/08/17 02:31:26;;;;;;;;;;;23.60;81.00;;;;;;4968141;28;20433;-64
2022/08/17 02:33:52;;;;;;;;;;;23.60;81.30;;;;;;4964187;28;19921;-66
2022/08/17 02:36:17;;;;;;;;;;;23.50;81.90;;;;;;4960239;28;19911;-65
2022/08/17 02:38:43;;;;;;;;;;;23.40;82.30;;;;;;4966284;28;20035;-67
2022/08/17 02:41:08;;;;;;;;;;;23.40;82.80;;;;;;4967854;28;19995;-64
2022/08/17 02:43:34;;;;;;;;;;;23.20;83.30;;;;;;4960073;28;19917;-63
2022/08/17 02:45:59;;;;;;;;;;;23.10;83.90;;;;;;4962269;28;20012;-69
2022/08/17 02:48:25;;;;;;;;;;;23.00;84.60;;;;;;4967775;28;19910;-64
2022/08/17 02:50:51;;;;;;;;;;;23.00;84.50;;;;;;4963622;28;19916;-70
2022/08/17 02:53:16;;;;;;;;;;;23.00;84.30;;;;;;4959974;28;20034;-65
2022/08/17 02:55:42;;;;;;;;;;;23.00;84.20;;;;;;4966111;28;20354;-63
2022/08/17 02:58:09;;;;;;;;;;;23.00;83.90;;;;;;4967524;28;20281;-65
2022/08/17 03:00:40;;;;;;;;;;;23.00;83.90;;;;;;4949837;28;19918;-66
2022/08/17 03:03:06;;;;;;;;;;;23.10;83.30;;;;;;4961134;28;20433;-64
2022/08/17 03:05:33;;;;;;;;;;;23.10;82.80;;;;;;4967401;28;19978;-65
2022/08/17 03:08:00;;;;;;;;;;;23.10;82.60;;;;;;4964407;28;20380;-64
2022/08/17 03:10:28;;;;;;;;;;;23.30;81.90;;;;;;4956963;28;19910;-63
2022/08/17 03:12:54;;;;;;;;;;;23.30;81.70;;;;;;4967237;28;20332;-67
2022/08/17 03:15:24;;;;;;;;;;;23.30;81.80;;;;;;4964903;28;20633;-65
2022/08/17 03:17:51;;;;;;;;;;;23.30;81.80;;;;;;4959643;28;19945;-72
2022/08/17 03:20:17;;;;;;;;;;;23.30;81.60;;;;;;4963846;28;20009;-73
2022/08/17 03:22:44;;;;;;;;;;;23.00;82.40;;;;;;4967361;28;20424;-71
2022/08/17 03:25:11;;;;;;;;;;;23.10;82.60;;;;;;4962243;28;20370;-66
2022/08/17 03:27:37;;;;;;;;;;;23.10;82.70;;;;;;4958925;28;20077;-64
2022/08/17 03:30:04;;;;;;;;;;;23.20;82.70;;;;;;4954143;28;20405;-64
2022/08/17 03:32:29;;;;;;;;;;;23.10;82.90;;;;;;4965813;28;19953;-66
2022/08/17 03:34:59;;;;;;;;;;;23.00;83.30;;;;;;4959438;28;19961;-64
2022/08/17 03:37:24;;;;;;;;;;;23.10;83.20;;;;;;4962478;28;19910;-64
2022/08/17 03:39:50;;;;;;;;;;;23.00;83.80;;;;;;4967049;28;19918;-64
2022/08/17 03:42:20;;;;;;;;;;;23.00;83.60;;;;;;4962267;28;19921;-63
2022/08/17 03:44:49;;;;;;;;;;;23.00;84.00;;;;;;4959373;28;19919;-64
2022/08/17 03:58:36;;;;;;;;;;;22.80;84.20;;;;;;4935647;28;19921;-63
2022/08/17 04:01:02;;;;;;;;;;;22.80;84.30;;;;;;4963617;28;20004;-64
2022/08/17 04:03:28;;;;;;;;;;;22.70;84.30;;;;;;4966810;28;19933;-63
2022/08/17 04:05:54;;;;;;;;;;;22.70;84.70;;;;;;4960708;28;20393;-65
2022/08/17 04:08:19;;;;;;;;;;;22.60;85.00;;;;;;4959529;28;19917;-70
2022/08/17 04:10:45;;;;;;;;;;;22.60;85.30;;;;;;4958591;28;20001;-68
2022/08/17 04:13:11;;;;;;;;;;;22.60;85.40;;;;;;4965476;28;20586;-70
2022/08/17 04:15:37;;;;;;;;;;;22.60;86.00;;;;;;4966399;28;20002;-64
2022/08/17 04:18:02;;;;;;;;;;;22.70;84.90;;;;;;4958988;28;19977;-71
2022/08/17 04:20:28;;;;;;;;;;;22.80;84.40;;;;;;4961440;28;19921;-71
2022/08/17 04:23:06;;;;;;;;;;;22.90;84.10;;;;;;4966794;28;20014;-68
2022/08/17 04:25:32;;;;;;;;;;;22.80;84.20;;;;;;4963795;28;19922;-69
2022/08/17 04:27:58;;;;;;;;;;;22.70;84.70;;;;;;4958816;28;19914;-73
2022/08/17 04:30:25;;;;;;;;;;;22.70;85.20;;;;;;4948996;28;19914;-70
2022/08/17 04:32:51;;;;;;;;;;;22.60;85.30;;;;;;4966814;28;19973;-72
2022/08/17 04:35:17;;;;;;;;;;;22.60;85.30;;;;;;4960342;28;19910;-73
2022/08/17 04:37:43;;;;;;;;;;;22.60;85.20;;;;;;4960464;28;20005;-71
2022/08/17 04:43:13;;;;;;;;;;;22.70;84.80;;;;;;4969956;28;20341;-65
2022/08/17 04:45:40;;;;;;;;;;;22.80;84.50;;;;;;4965123;28;19922;-70
2022/08/17 04:48:06;;;;;;;;;;;22.80;84.20;;;;;;4974815;28;19910;-71
2022/08/17 04:50:32;;;;;;;;;;;22.70;84.50;;;;;;4963281;28;20009;-74
2022/08/17 04:52:58;;;;;;;;;;;22.70;84.80;;;;;;4963007;28;20346;-72
2022/08/17 04:55:23;;;;;;;;;;;22.60;85.50;;;;;;4970067;28;19946;-72
2022/08/17 04:57:49;;;;;;;;;;;22.60;85.40;;;;;;4967077;28;20409;-73
2022/08/17 05:00:14;;;;;;;;;;;22.70;85.50;;;;;;4947855;28;19921;-73
2022/08/17 05:02:47;;;;;;;;;;;22.70;85.60;;;;;;4966720;28;19971;-73
2022/08/17 05:05:23;;;;;;;;;;;22.60;85.70;;;;;;4969691;28;19922;-68
2022/08/17 05:07:53;;;;;;;;;;;22.60;85.90;;;;;;4965328;28;20250;-66
2022/08/17 05:10:20;;;;;;;;;;;22.60;85.80;;;;;;4960141;28;19915;-68
2022/08/17 05:12:45;;;;;;;;;;;22.60;86.10;;;;;;4969891;28;20001;-65
2022/08/17 05:15:14;;;;;;;;;;;22.60;86.30;;;;;;4965840;28;20017;-64
2022/08/17 05:17:43;;;;;;;;;;;22.60;86.30;;;;;;4961807;28;20323;-65
2022/08/17 05:20:09;;;;;;;;;;;22.70;86.30;;;;;;4966563;28;20377;-63
2022/08/17 05:22:34;;;;;;;;;;;22.70;86.20;;;;;;4969795;28;19911;-64
2022/08/17 05:25:00;;;;;;;;;;;22.80;86.00;;;;;;4962484;28;20370;-64
2022/08/17 05:27:25;;;;;;;;;;;22.90;85.80;;;;;;4962812;28;19945;-67
2022/08/17 05:29:51;;;;;;;;;;;22.90;85.50;;;;;;4939599;29;19910;-68
2022/08/17 05:32:21;;;;;;;;;;;22.90;85.40;;;;;;4966265;28;19917;-66
2022/08/17 05:34:47;;;;;;;;;;;22.90;85.20;;;;;;4944787;28;19963;-67
2022/08/17 05:37:12;;;;;;;;;;;23.00;85.40;;;;;;4965998;28;20267;-66
2022/08/17 05:39:38;;;;;;;;;;;22.90;85.60;;;;;;4970025;28;20017;-65
2022/08/17 05:42:03;;;;;;;;;;;22.90;85.00;;;;;;4962776;28;20013;-66
2022/08/17 05:44:29;;;;;;;;;;;23.00;84.80;;;;;;4962034;28;20278;-66
2022/08/17 05:46:55;;;;;;;;;;;23.20;85.50;;;;;;4968947;28;19914;-66
2022/08/17 05:49:25;;;;;;;;;;;23.20;84.40;;;;;;4954068;28;19919;-73
2022/08/17 05:51:57;;;;;;;;;;;23.20;84.20;;;;;;4954827;28;19910;-69
2022/08/17 05:54:46;;;;;;;;;;;23.30;84.10;;;;;;4970942;28;19965;-69
2022/08/17 05:57:12;;;;;;;;;;;23.40;84.20;;;;;;4973279;28;19911;-69
2022/08/17 05:59:56;;;;;;;;;;;23.30;84.50;;;;;;4956824;28;19914;-69
2022/08/17 06:02:21;;;;;;;;;;;23.40;84.50;;;;;;4955275;28;20441;-67
2022/08/17 06:04:47;;;;;;;;;;;23.70;84.10;;;;;;4968498;28;20016;-64
2022/08/17 06:07:39;;;;;;;;;;;24.10;82.30;;;;;;4966978;28;19910;-67
2022/08/17 06:10:13;;;;;;;;;;;24.70;79.50;;;;;;4927809;28;19977;-71
2022/08/17 06:12:45;;;;;;;;;;;25.40;77.50;;;;;;4968696;28;19915;-70
2022/08/17 06:15:25;;;;;;;;;;;25.80;75.60;;;;;;4964548;28;20290;-71
2022/08/17 06:17:53;;;;;;;;;;;26.30;73.80;;;;;;4960657;28;19910;-72
2022/08/17 06:20:19;;;;;;;;;;;26.60;71.70;;;;;;4964600;28;19918;-71
2022/08/17 06:22:48;;;;;;;;;;;27.00;70.10;;;;;;4968429;28;20277;-72
2022/08/17 06:25:20;;;;;;;;;;;27.20;68.80;;;;;;4963363;28;19926;-72
2022/08/17 06:27:48;;;;;;;;;;;27.50;68.00;;;;;;4960503;28;19910;-73
2022/08/17 06:30:16;;;;;;;;;;;27.70;67.10;;;;;;4954900;28;19925;-73
2022/08/17 06:32:44;;;;;;;;;;;27.90;66.10;;;;;;4968249;28;20635;-70
2022/08/17 06:35:11;;;;;;;;;;;28.00;65.30;;;;;;4961029;28;20020;-70
2022/08/17 06:37:43;;;;;;;;;;;28.20;64.90;;;;;;4961714;28;19955;-73
2022/08/17 06:40:29;;;;;;;;;;;28.30;64.50;;;;;;4968188;28;20430;-72
2022/08/17 06:43:03;;;;;;;;;;;28.50;63.80;;;;;;4968135;28;20342;-73
2022/08/17 06:45:30;;;;;;;;;;;28.70;63.30;;;;;;4944347;28;19918;-72
2022/08/17 06:48:11;;;;;;;;;;;28.80;63.20;;;;;;4960744;28;19965;-73
2022/08/17 06:50:45;;;;;;;;;;;28.90;62.30;;;;;;4961871;28;19970;-71
2022/08/17 06:53:11;;;;;;;;;;;29.00;62.00;;;;;;4960212;28;19911;-70
2022/08/17 06:55:45;;;;;;;;;;;29.10;61.00;;;;;;4963843;28;20290;-70
2022/08/17 06:58:12;;;;;;;;;;;29.20;60.90;;;;;;4953508;28;19937;-69
2022/08/17 07:00:43;;;;;;;;;;;29.20;61.30;;;;;;4943607;28;20409;-70
2022/08/17 07:03:14;;;;;;;;;;;29.30;60.10;;;;;;4953257;28;19964;-71
2022/08/17 07:05:55;;;;;;;;;;;29.40;59.80;;;;;;4953746;28;19966;-70
2022/08/17 07:08:24;;;;;;;;;;;29.40;59.40;;;;;;4967543;28;20005;-68
2022/08/17 07:10:51;;;;;;;;;;;29.50;59.30;;;;;;4953710;28;20001;-72
2022/08/17 07:13:32;;;;;;;;;;;29.50;59.20;;;;;;4953464;28;19938;-74
2022/08/17 07:16:06;;;;;;;;;;;29.40;59.10;;;;;;4956931;28;19919;-71
2022/08/17 07:18:33;;;;;;;;;;;29.00;59.90;;;;;;4953895;28;19921;-71
2022/08/17 07:21:03;;;;;;;;;;;29.00;61.10;;;;;;4954029;28;19914;-72
2022/08/17 07:23:38;;;;;;;;;;;29.00;61.30;;;;;;4953974;28;19910;-74
2022/08/17 07:26:05;;;;;;;;;;;29.10;60.70;;;;;;4936418;28;19980;-70
2022/08/17 07:28:31;;;;;;;;;;;29.20;60.80;;;;;;4942031;28;19915;-70
2022/08/17 07:30:57;;;;;;;;;;;29.30;60.30;;;;;;4953724;28;20430;-69
2022/08/17 07:33:24;;;;;;;;;;;29.40;59.90;;;;;;4953709;28;19914;-68
2022/08/17 07:35:50;;;;;;;;;;;29.40;59.80;;;;;;4953695;28;19914;-68
2022/08/17 07:38:22;;;;;;;;;;;29.50;60.10;;;;;;4956461;28;19914;-73
2022/08/17 07:41:01;;;;;;;;;;;29.50;60.40;;;;;;4953886;28;19925;-72
2022/08/17 07:43:38;;;;;;;;;;;29.60;59.80;;;;;;4953679;28;19918;-68
2022/08/17 07:49:17;;;;;;;;;;;29.70;58.80;;;;;;4966981;28;20077;-71
2022/08/17 07:51:43;;;;;;;;;;;29.60;58.90;;;;;;4954399;28;20008;-68
2022/08/17 07:54:14;;;;;;;;;;;29.50;59.50;;;;;;4959210;28;20062;-65
2022/08/17 07:56:39;;;;;;;;;;;29.50;59.50;;;;;;4965340;28;19919;-66
2022/08/17 07:59:06;;;;;;;;;;;29.50;59.10;;;;;;4955247;28;19922;-67
2022/08/17 08:01:36;;;;;;;;;;;29.60;58.70;;;;;;4959163;28;19993;-66
2022/08/17 08:04:15;;;;;;;;;;;29.70;58.40;;;;;;4960638;28;20337;-67
2022/08/17 08:06:46;;;;;;;;;;;29.60;58.60;;;;;;4959493;28;19924;-65
2022/08/17 08:09:26;;;;;;;;;;;29.60;58.90;;;;;;4960052;28;20450;-72
2022/08/17 08:11:52;;;;;;;;;;;29.40;59.20;;;;;;4953246;28;19921;-67
2022/08/17 08:14:28;;;;;;;;;;;29.30;60.20;;;;;;4958317;28;20009;-68
2022/08/17 08:16:55;;;;;;;;;;;29.30;59.70;;;;;;4956515;28;20278;-68
2022/08/17 08:19:22;;;;;;;;;;;29.30;60.60;;;;;;4955948;28;20395;-70
2022/08/17 08:21:58;;;;;;;;;;;29.30;60.00;;;;;;4956485;28;19926;-64
2022/08/17 08:24:25;;;;;;;;;;;29.40;59.80;;;;;;4953311;28;20009;-66
2022/08/17 08:27:09;;;;;;;;;;;29.30;60.00;;;;;;4956326;28;19918;-63
2022/08/17 08:29:49;;;;;;;;;;;29.40;60.50;;;;;;4945944;28;20601;-70
2022/08/17 08:32:15;;;;;;;;;;;29.50;59.80;;;;;;4956376;28;19911;-68
2022/08/17 08:34:42;;;;;;;;;;;29.50;60.20;;;;;;4965941;28;19921;-67
2022/08/17 08:37:26;;;;;;;;;;;29.50;59.80;;;;;;4962570;28;20302;-67
2022/08/17 08:40:11;;;;;;;;;;;29.50;59.90;;;;;;4966460;28;20366;-67
2022/08/17 08:43:03;;;;;;;;;;;29.30;60.60;;;;;;4966785;28;19914;-74
2022/08/17 08:45:49;;;;;;;;;;;29.30;60.30;;;;;;4968643;28;19933;-60
2022/08/17 08:48:25;;;;;;;;;;;29.40;60.60;;;;;;4946792;28;19918;-60
2022/08/17 08:50:55;;;;;;;;;;;29.40;60.80;;;;;;4974508;28;20020;-60
2022/08/17 08:53:28;;;;;;;;;;;29.40;60.40;;;;;;4975310;28;19914;-61
2022/08/17 08:55:56;;;;;;;;;;;29.50;58.90;;;;;;4969159;28;19915;-66
2022/08/17 08:58:40;;;;;;;;;;;29.40;59.80;;;;;;4969250;28;19918;-60
2022/08/17 09:01:12;;;;;;;;;;;29.40;59.60;;;;;;4964064;28;19925;-61
2022/08/17 09:03:41;;;;;;;;;;;29.40;59.70;;;;;;4961949;28;20334;-65
2022/08/17 09:06:13;;;;;;;;;;;29.40;59.20;;;;;;4968895;28;19922;-61
2022/08/17 09:08:45;;;;;;;;;;;29.30;59.60;;;;;;4969725;28;19910;-63
2022/08/17 09:11:25;;;;;;;;;;;29.40;59.70;;;;;;4961100;28;20294;-70
2022/08/17 09:13:53;;;;;;;;;;;29.40;59.20;;;;;;4962827;28;19957;-67
2022/08/17 09:16:32;;;;;;;;;;;29.40;59.40;;;;;;4969653;28;19910;-67
2022/08/17 09:19:12;;;;;;;;;;;29.40;59.80;;;;;;4968671;28;19914;-72
2022/08/17 09:21:46;;;;;;;;;;;29.40;59.60;;;;;;4968681;28;20434;-72
2022/08/17 09:24:19;;;;;;;;;;;29.30;60.00;;;;;;4968435;28;19914;-70
2022/08/17 09:26:50;;;;;;;;;;;29.30;59.90;;;;;;4963029;28;19914;-71
2022/08/17 09:29:16;;;;;;;;;;;29.30;61.30;;;;;;4949242;28;19918;-73
2022/08/17 09:31:48;;;;;;;;;;;29.30;60.20;;;;;;4961666;28;19914;-67
2022/08/17 09:34:21;;;;;;;;;;;29.20;60.00;;;;;;4962626;28;19914;-69
2022/08/17 09:36:58;;;;;;;;;;;29.30;59.80;;;;;;4969241;28;19951;-70
2022/08/17 09:39:26;;;;;;;;;;;29.20;60.50;;;;;;4954680;28;19957;-68
2022/08/17 09:42:11;;;;;;;;;;;29.20;59.50;;;;;;4954953;28;19921;-68
2022/08/17 09:44:41;;;;;;;;;;;29.20;60.80;;;;;;4972558;28;20008;-69
2022/08/17 09:47:10;;;;;;;;;;;29.20;60.10;;;;;;4973228;28;20335;-68
2022/08/17 09:49:41;;;;;;;;;;;29.10;60.60;;;;;;4973296;28;19965;-64
2022/08/17 09:52:15;;;;;;;;;;;29.10;60.00;;;;;;4973334;28;19914;-67
2022/08/17 09:54:41;;;;;;;;;;;29.00;60.30;;;;;;4972974;28;19921;-66
2022/08/17 09:57:12;;;;;;;;;;;28.90;62.00;;;;;;4973266;28;19922;-71
2022/08/17 09:59:54;;;;;;;;;;;29.00;61.50;;;;;;4963122;28;20286;-67
2022/08/17 10:02:39;;;;;;;;;;;28.90;61.60;;;;;;4954528;28;19919;-64
2022/08/17 10:05:10;;;;;;;;;;;28.90;62.70;;;;;;4963651;28;19926;-61
2022/08/17 10:07:42;;;;;;;;;;;28.90;61.70;;;;;;4960285;28;19925;-68
2022/08/17 10:10:14;;;;;;;;;;;28.90;61.70;;;;;;4968032;28;19933;-64
2022/08/17 10:12:45;;;;;;;;;;;28.80;61.90;;;;;;4964222;28;19911;-59
2022/08/17 10:15:29;;;;;;;;;;;28.80;63.50;;;;;;4958662;28;20392;-63
2022/08/17 10:18:06;;;;;;;;;;;28.80;64.10;;;;;;4968440;28;20009;-73
2022/08/17 10:20:37;;;;;;;;;;;28.80;62.90;;;;;;4965852;28;19910;-67
2022/08/17 10:28:31;;;;;;;;;;;28.80;64.00;;;;;;4940445;28;20050;-65
2022/08/17 10:30:58;;;;;;;;;;;28.80;62.30;;;;;;4954805;28;19965;-63
2022/08/17 10:33:33;;;;;;;;;;;28.70;62.90;;;;;;4965026;28;19952;-68
2022/08/17 10:36:01;;;;;;;;;;;28.80;63.70;;;;;;4953767;28;19911;-72
2022/08/17 10:38:44;;;;;;;;;;;28.90;63.10;;;;;;4967771;28;20274;-61
2022/08/17 10:41:25;;;;;;;;;;;29.00;62.60;;;;;;4954038;28;19910;-63
2022/08/17 10:43:59;;;;;;;;;;;29.00;62.80;;;;;;4954069;28;19911;-62
2022/08/17 10:46:43;;;;;;;;;;;29.00;62.60;;;;;;4968164;28;19918;-68
2022/08/17 10:49:12;;;;;;;;;;;29.00;63.10;;;;;;4963492;28;20002;-63
2022/08/17 10:51:38;;;;;;;;;;;29.00;63.00;;;;;;4953399;28;19921;-63
2022/08/17 10:54:05;;;;;;;;;;;29.00;62.70;;;;;;4961736;28;20395;-64
2022/08/17 10:56:42;;;;;;;;;;;29.00;63.00;;;;;;4958731;28;20009;-67
2022/08/17 10:59:08;;;;;;;;;;;29.00;63.70;;;;;;4939159;28;19917;-62
2022/08/17 11:01:36;;;;;;;;;;;29.00;63.30;;;;;;4953666;28;19914;-63
2022/08/17 11:04:17;;;;;;;;;;;28.90;63.40;;;;;;4953174;28;19927;-63
2022/08/17 11:07:01;;;;;;;;;;;28.80;65.00;;;;;;4936104;29;20318;-62
2022/08/17 11:09:30;;;;;;;;;;;28.90;64.70;;;;;;4961920;28;20049;-61
2022/08/17 11:12:05;;;;;;;;;;;28.80;64.80;;;;;;4971508;28;19911;-63
2022/08/17 11:14:37;;;;;;;;;;;28.90;64.20;;;;;;4953092;28;19914;-60
2022/08/17 11:17:14;;;;;;;;;;;28.90;64.80;;;;;;4966834;28;20029;-63
2022/08/17 11:20:03;;;;;;;;;;;29.00;64.60;;;;;;4961427;28;19988;-70
2022/08/17 11:22:32;;;;;;;;;;;28.90;64.40;;;;;;4968749;28;19910;-62
2022/08/17 11:25:10;;;;;;;;;;;29.00;64.30;;;;;;4955617;28;19941;-62
2022/08/17 11:27:36;;;;;;;;;;;29.00;65.10;;;;;;4954928;28;19925;-64
2022/08/17 11:30:06;;;;;;;;;;;28.90;64.20;;;;;;4938068;28;19910;-63
2022/08/17 11:32:39;;;;;;;;;;;29.00;65.30;;;;;;4953285;28;19969;-64
2022/08/17 11:35:07;;;;;;;;;;;29.00;64.70;;;;;;4954641;28;20306;-64
2022/08/17 11:37:41;;;;;;;;;;;29.00;64.60;;;;;;4956624;28;19930;-65
2022/08/17 11:40:17;;;;;;;;;;;29.10;64.70;;;;;;4952871;28;19914;-65
2022/08/17 11:42:58;;;;;;;;;;;29.00;65.30;;;;;;4956462;28;19914;-65
2022/08/17 11:45:24;;;;;;;;;;;29.00;65.60;;;;;;4954196;28;20341;-67
2022/08/17 11:53:36;;;;;;;;;;;29.00;66.30;;;;;;4961904;28;19917;-63
2022/08/17 11:56:04;;;;;;;;;;;29.00;65.90;;;;;;4961384;28;19926;-65
2022/08/17 11:58:36;;;;;;;;;;;29.00;66.80;;;;;;4950651;28;19910;-62
2022/08/17 12:01:09;;;;;;;;;;;29.00;65.70;;;;;;4970618;28;19925;-65
2022/08/17 12:03:37;;;;;;;;;;;28.90;66.50;;;;;;4964350;28;19930;-63
2022/08/17 12:06:03;;;;;;;;;;;29.00;66.60;;;;;;4967829;28;19946;-63
2022/08/17 12:08:31;;;;;;;;;;;29.00;67.30;;;;;;4972345;28;19958;-63
2022/08/17 12:11:00;;;;;;;;;;;29.00;66.00;;;;;;4960742;28;19950;-62
2022/08/17 12:13:27;;;;;;;;;;;28.90;66.90;;;;;;4973086;28;20316;-63
2022/08/17 12:15:53;;;;;;;;;;;28.90;66.40;;;;;;4964279;28;19918;-67
2022/08/17 12:18:24;;;;;;;;;;;28.90;66.00;;;;;;4961178;28;19921;-68
2022/08/17 12:21:08;;;;;;;;;;;28.70;66.30;;;;;;4964828;28;19989;-70
2022/08/17 12:23:49;;;;;;;;;;;28.70;66.80;;;;;;4961039;28;19910;-66
2022/08/17 12:26:18;;;;;;;;;;;28.70;67.30;;;;;;4959929;28;19970;-62
2022/08/17 12:28:45;;;;;;;;;;;28.80;66.90;;;;;;4960381;28;20001;-70
2022/08/17 12:31:16;;;;;;;;;;;28.90;67.10;;;;;;4960476;28;19950;-69
2022/08/17 12:33:43;;;;;;;;;;;28.90;66.80;;;;;;4960655;28;20327;-67
2022/08/17 12:36:13;;;;;;;;;;;28.90;66.80;;;;;;4972849;28;20294;-63
2022/08/17 12:38:40;;;;;;;;;;;28.90;66.40;;;;;;4969277;28;20004;-70
2022/08/17 12:41:25;;;;;;;;;;;28.90;66.90;;;;;;4965252;28;19917;-65
2022/08/17 12:43:55;;;;;;;;;;;28.90;67.20;;;;;;4968542;28;19921;-65
2022/08/17 12:46:21;;;;;;;;;;;28.90;67.40;;;;;;4972850;28;19922;-65
2022/08/17 12:48:48;;;;;;;;;;;28.90;66.60;;;;;;4968459;28;20221;-67
2022/08/17 12:51:14;;;;;;;;;;;28.90;66.60;;;;;;4965017;28;20294;-65
2022/08/17 12:53:44;;;;;;;;;;;28.90;65.70;;;;;;4971632;28;19914;-67
2022/08/17 12:56:11;;;;;;;;;;;28.90;66.30;;;;;;4973127;28;19957;-65
2022/08/17 12:58:46;;;;;;;;;;;28.90;66.60;;;;;;4952346;28;19910;-66
2022/08/17 13:01:16;;;;;;;;;;;28.90;66.30;;;;;;4962451;28;19918;-65
2022/08/17 13:03:48;;;;;;;;;;;28.90;65.60;;;;;;4955064;28;19929;-66
2022/08/17 13:06:27;;;;;;;;;;;28.90;65.50;;;;;;4955360;28;19919;-66
2022/08/17 13:08:53;;;;;;;;;;;28.90;65.70;;;;;;4972922;28;19914;-65
2022/08/17 13:11:22;;;;;;;;;;;28.90;64.80;;;;;;4974204;28;19910;-65
2022/08/17 13:13:53;;;;;;;;;;;29.00;64.60;;;;;;4974264;28;19910;-63
2022/08/17 13:16:21;;;;;;;;;;;29.00;64.60;;;;;;4974237;28;19945;-61
2022/08/17 13:18:54;;;;;;;;;;;29.00;63.20;;;;;;4973996;28;19938;-67
2022/08/17 13:21:22;;;;;;;;;;;28.90;61.80;;;;;;4960816;28;19917;-66
2022/08/17 13:23:54;;;;;;;;;;;28.90;62.30;;;;;;4954932;28;19962;-65
2022/08/17 13:26:26;;;;;;;;;;;28.80;62.60;;;;;;4955093;28;19919;-63
2022/08/17 13:29:00;;;;;;;;;;;28.90;62.80;;;;;;4924318;29;20363;-65
2022/08/17 13:31:28;;;;;;;;;;;28.90;59.60;;;;;;4967298;28;19914;-61
2022/08/17 13:34:12;;;;;;;;;;;28.90;57.40;;;;;;4961365;28;19918;-65
2022/08/17 13:36:38;;;;;;;;;;;28.90;56.20;;;;;;4962813;28;20441;-68
2022/08/17 13:39:11;;;;;;;;;;;29.00;55.10;;;;;;4954706;28;19922;-66
2022/08/17 13:41:37;;;;;;;;;;;29.00;55.30;;;;;;4971163;28;19914;-68
2022/08/17 13:44:25;;;;;;;;;;;29.20;56.50;;;;;;4973748;28;19921;-65
2022/08/17 13:46:51;;;;;;;;;;;29.20;57.70;;;;;;4973295;28;19930;-63
2022/08/17 13:49:18;;;;;;;;;;;29.20;57.40;;;;;;4973694;28;20428;-64
2022/08/17 13:51:45;;;;;;;;;;;29.20;56.70;;;;;;4965430;28;19986;-64
2022/08/17 13:54:22;;;;;;;;;;;29.20;56.50;;;;;;4968774;28;19918;-65
2022/08/17 13:56:53;;;;;;;;;;;29.20;57.30;;;;;;4954309;28;19946;-63
2022/08/17 13:59:36;;;;;;;;;;;29.20;58.10;;;;;;4958069;28;20009;-70
2022/08/17 14:02:03;;;;;;;;;;;29.20;57.00;;;;;;4973359;28;19914;-69
2022/08/17 14:04:30;;;;;;;;;;;29.20;58.20;;;;;;4973317;28;20389;-64
2022/08/17 14:06:56;;;;;;;;;;;29.20;58.20;;;;;;4973295;28;19922;-73
2022/08/17 14:09:27;;;;;;;;;;;29.20;58.60;;;;;;4973211;28;19914;-69
2022/08/17 14:11:53;;;;;;;;;;;29.20;58.30;;;;;;4972556;28;19948;-70
2022/08/17 14:14:21;;;;;;;;;;;29.30;58.70;;;;;;4955703;28;19949;-71
2022/08/17 14:16:47;;;;;;;;;;;29.30;57.70;;;;;;4973096;28;19918;-69
2022/08/17 14:19:13;;;;;;;;;;;29.40;58.10;;;;;;4972932;28;19969;-72
2022/08/17 14:21:41;;;;;;;;;;;29.40;56.90;;;;;;4973001;28;20606;-75
2022/08/17 14:24:08;;;;;;;;;;;29.40;56.60;;;;;;4969606;28;19915;-77
2022/08/17 14:26:34;;;;;;;;;;;29.40;56.00;;;;;;4954049;28;20459;-77
2022/08/17 14:29:00;;;;;;;;;;;29.40;54.50;;;;;;4940357;28;19910;-73
2022/08/17 14:31:26;;;;;;;;;;;29.40;54.10;;;;;;4953736;28;19915;-64
2022/08/17 14:33:52;;;;;;;;;;;29.50;54.40;;;;;;4953404;28;19925;-67
2022/08/17 14:36:18;;;;;;;;;;;29.50;54.60;;;;;;4953240;28;20460;-64
2022/08/17 14:38:43;;;;;;;;;;;29.50;54.90;;;;;;4953051;28;20001;-72
2022/08/17 14:41:09;;;;;;;;;;;29.50;55.00;;;;;;4953417;28;20282;-70
2022/08/17 14:43:35;;;;;;;;;;;29.40;56.10;;;;;;4954013;28;20001;-75
2022/08/17 14:46:00;;;;;;;;;;;29.30;58.10;;;;;;4954219;28;19981;-73
2022/08/17 14:48:27;;;;;;;;;;;29.30;58.40;;;;;;4954159;28;19911;-72
2022/08/17 14:50:53;;;;;;;;;;;29.30;57.60;;;;;;4953741;28;19950;-78
2022/08/17 14:53:20;;;;;;;;;;;29.30;58.30;;;;;;4952687;28;19962;-70
2022/08/17 14:55:48;;;;;;;;;;;29.20;58.10;;;;;;4952819;28;20390;-69
2022/08/17 14:58:13;;;;;;;;;;;29.20;57.70;;;;;;4953463;28;19918;-71
2022/08/17 15:00:40;;;;;;;;;;;29.30;57.80;;;;;;4941323;28;19919;-72